Aurora, North Carolina
Current Conditions -  °F | °C
As of 6:54 PM on Saturday 22 Nov 2014 (Local Time) from KEWN Reporting Station
Clear Clear  
Wind Chill: 41°   Ceiling: Unl
Heat Index: 41°   Visibility: 10mi
Dew Point: 34°   Wind: 0mph
Humidity: 76%   Direction: NA
Pressure: 30.4"   Gusts: NA
Location:  35.31°N, 76.79°W
Report Text: KEWN 222354Z 00000KT 10SM CLR 05/01 A3040 RMK AO2 SLP293 T00500011 10150 20039 58010
Loading
Personal Weather Stations






























Interactive Weather Map New forecast layout! Learn more

10-Day Weather Forecast

Advertisements
Track Severe Weather on mobile